Time;durP1;ratioP1;P1;durP2;ratioP2;P2;SDS_P1;SDS_P2;PMS_P1;PMS_P2;Temp;Humidity;BMP_temperature;BMP_pressure;BME280_temperature;BME280_humidity;BME280_pressure;Samples;Min_cycle;Max_cycle;Signal;HPM_P1;HPM_P2
2023/02/08 00:00:53;;;;;;;0.93;0.65;;;21.30;30.40;;;;;;5069997;28;20403;-56
2023/02/08 00:03:20;;;;;;;1.90;1.40;;;21.10;30.10;;;;;;5069045;28;20091;-61
2023/02/08 00:05:46;;;;;;;3.97;1.75;;;21.00;30.10;;;;;;5068288;28;20092;-60
2023/02/08 00:08:13;;;;;;;8.60;1.10;;;20.90;30.90;;;;;;5069179;28;20090;-61
2023/02/08 00:10:39;;;;;;;1.83;0.70;;;20.80;30.50;;;;;;5068671;28;20064;-57
2023/02/08 00:13:06;;;;;;;6.68;0.80;;;20.70;30.00;;;;;;5069179;28;20064;-59
2023/02/08 00:15:32;;;;;;;5.22;0.73;;;20.60;30.80;;;;;;5065997;28;20072;-59
2023/02/08 00:17:59;;;;;;;2.13;0.50;;;20.60;31.20;;;;;;5068509;28;20086;-58
2023/02/08 00:20:25;;;;;;;2.78;0.50;;;20.70;29.80;;;;;;5067618;28;20055;-60
2023/02/08 00:22:52;;;;;;;3.25;0.90;;;20.60;30.00;;;;;;5070668;28;20072;-59
2023/02/08 00:25:21;;;;;;;3.05;0.77;;;20.60;30.10;;;;;;5069862;28;20154;-55
2023/02/08 00:27:48;;;;;;;1.70;1.10;;;20.60;30.30;;;;;;5068890;28;20107;-60
2023/02/08 00:30:14;;;;;;;3.30;1.23;;;20.60;30.90;;;;;;5068559;28;20102;-61
2023/02/08 00:32:40;;;;;;;10.65;5.25;;;20.60;30.50;;;;;;5068934;28;20550;-61
2023/02/08 00:35:07;;;;;;;3.90;1.40;;;20.60;30.70;;;;;;5070023;28;20122;-58
2023/02/08 00:37:34;;;;;;;3.97;0.88;;;20.60;30.80;;;;;;5069781;28;20068;-60
2023/02/08 00:40:01;;;;;;;2.92;1.63;;;20.60;31.10;;;;;;5069698;28;20068;-61
2023/02/08 00:42:29;;;;;;;2.10;1.25;;;20.50;30.80;;;;;;5069634;28;20080;-59
2023/02/08 00:44:55;;;;;;;2.83;1.40;;;20.60;30.70;;;;;;5069497;28;20088;-60
2023/02/08 00:47:21;;;;;;;2.97;1.30;;;20.50;31.20;;;;;;5069487;28;20083;-60
2023/02/08 00:49:48;;;;;;;4.35;0.98;;;20.50;31.20;;;;;;5068292;28;20083;-59
2023/02/08 00:52:14;;;;;;;6.78;1.40;;;20.50;31.00;;;;;;5069539;28;20107;-61
2023/02/08 00:54:41;;;;;;;3.33;0.77;;;19.60;54.10;;;;;;5070476;28;20090;-60
2023/02/08 00:57:08;;;;;;;3.55;0.70;;;20.20;31.80;;;;;;5069658;28;20105;-61
2023/02/08 00:59:34;;;;;;;5.13;0.90;;;20.10;32.40;;;;;;5069556;28;20092;-61
2023/02/08 01:02:01;;;;;;;1.45;0.82;;;20.00;32.90;;;;;;5068880;28;20079;-60
2023/02/08 01:04:27;;;;;;;3.85;0.75;;;19.80;32.80;;;;;;5069871;28;20088;-58
2023/02/08 01:06:53;;;;;;;9.38;1.25;;;19.70;33.00;;;;;;5067990;28;20567;-59
2023/02/08 01:09:20;;;;;;;6.68;1.15;;;19.60;33.30;;;;;;5070180;28;20140;-60
2023/02/08 01:11:46;;;;;;;4.00;0.80;;;19.40;33.60;;;;;;5069083;28;20076;-62
2023/02/08 01:14:13;;;;;;;7.07;1.10;;;19.30;33.00;;;;;;5068109;28;20075;-61
2023/02/08 01:16:39;;;;;;;1.23;0.50;;;19.30;33.00;;;;;;5069223;28;20534;-61
2023/02/08 01:19:05;;;;;;;3.92;1.80;;;19.20;33.80;;;;;;5068390;28;20166;-61
2023/02/08 01:21:35;;;;;;;4.13;0.88;;;19.10;34.80;;;;;;5069422;28;20080;-61
2023/02/08 01:24:02;;;;;;;5.18;1.48;;;19.00;34.60;;;;;;5069434;28;20977;-61
2023/02/08 01:26:28;;;;;;;4.70;1.10;;;18.90;34.50;;;;;;5068746;28;20257;-61
2023/02/08 01:28:55;;;;;;;4.35;1.30;;;18.80;34.60;;;;;;5068246;28;20068;-61
2023/02/08 01:31:27;;;;;;;5.47;1.40;;;18.70;34.10;;;;;;5067685;28;20140;-61
2023/02/08 01:33:55;;;;;;;5.20;1.10;;;18.60;35.20;;;;;;5069945;28;20536;-61
2023/02/08 01:36:21;;;;;;;11.25;1.75;;;18.50;35.80;;;;;;5068953;28;20068;-62
2023/02/08 01:38:48;;;;;;;13.30;1.80;;;18.40;36.50;;;;;;5068431;28;20096;-61
2023/02/08 01:41:23;;;;;;;6.68;1.70;;;18.30;36.60;;;;;;5068771;28;20206;-60
2023/02/08 01:44:00;;;;;;;17.45;2.20;;;18.20;36.40;;;;;;5069214;28;20087;-62
2023/02/08 01:46:27;;;;;;;11.65;2.42;;;18.10;36.40;;;;;;5068995;28;20084;-62
2023/02/08 01:49:00;;;;;;;20.88;8.23;;;18.10;37.30;;;;;;5067983;28;20064;-61
2023/02/08 01:51:31;;;;;;;15.43;2.10;;;17.90;37.80;;;;;;5068263;28;20092;-61
2023/02/08 01:54:02;;;;;;;19.92;2.58;;;17.90;38.00;;;;;;5067948;28;20064;-58
2023/02/08 01:56:37;;;;;;;16.67;2.55;;;17.70;38.20;;;;;;5068365;28;20084;-61
2023/02/08 01:59:18;;;;;;;16.58;2.92;;;17.70;38.50;;;;;;5068456;28;20063;-62
2023/02/08 02:01:47;;;;;;;16.88;2.92;;;17.60;38.70;;;;;;5067922;28;20136;-61
2023/02/08 02:04:15;;;;;;;21.23;3.08;;;17.60;38.70;;;;;;5068130;28;20140;-60
2023/02/08 02:06:48;;;;;;;20.35;3.15;;;17.50;38.80;;;;;;5067966;28;20092;-59
2023/02/08 02:09:19;;;;;;;26.88;6.43;;;17.40;39.70;;;;;;5066891;28;20566;-55
2023/02/08 02:11:45;;;;;;;42.38;7.85;;;17.40;39.60;;;;;;5067050;28;20438;-62
2023/02/08 02:14:12;;;;;;;31.55;6.05;;;17.30;40.30;;;;;;5069788;28;20064;-59
2023/02/08 02:16:39;;;;;;;67.57;6.82;;;17.20;41.20;;;;;;5069167;28;20095;-61
2023/02/08 02:19:14;;;;;;;30.92;3.60;;;17.10;41.10;;;;;;5067476;28;20129;-62
2023/02/08 02:21:58;;;;;;;30.88;3.85;;;17.00;40.80;;;;;;5067256;28;20076;-59
2023/02/08 02:24:47;;;;;;;23.42;4.50;;;16.90;40.90;;;;;;5067949;28;20170;-62
2023/02/08 02:27:26;;;;;;;19.00;4.13;;;16.90;40.60;;;;;;5066312;28;20138;-62
2023/02/08 02:30:12;;;;;;;21.90;4.57;;;16.90;41.20;;;;;;5068949;28;20064;-61
2023/02/08 02:32:51;;;;;;;33.60;4.65;;;16.80;41.00;;;;;;5067682;28;20068;-62
2023/02/08 02:35:50;;;;;;;21.52;5.05;;;16.80;40.80;;;;;;5066805;28;20069;-59
2023/02/08 02:38:33;;;;;;;30.52;5.55;;;16.70;40.70;;;;;;5041292;28;20091;-61
2023/02/08 02:43:40;;;;;;;39.65;6.07;;;16.60;41.00;;;;;;5068028;28;20550;-57
2023/02/08 02:44:13;;;;;;;36.58;6.18;;;16.60;41.80;;;;;;5067840;28;20076;-62
2023/02/08 02:46:52;;;;;;;39.30;5.28;;;16.50;41.70;;;;;;5067937;28;20554;-64
2023/02/08 02:49:33;;;;;;;25.27;5.60;;;16.50;42.20;;;;;;5064299;28;20496;-64
2023/02/08 02:52:12;;;;;;;39.45;6.75;;;16.40;42.60;;;;;;5067573;28;20515;-63
2023/02/08 02:55:09;;;;;;;32.10;6.63;;;16.30;42.80;;;;;;5067194;28;20068;-62
2023/02/08 02:57:36;;;;;;;54.17;6.70;;;16.20;42.80;;;;;;5067871;28;20958;-62
2023/02/08 03:00:12;;;;;;;33.35;6.75;;;16.20;43.80;;;;;;5067888;28;20083;-61
2023/02/08 03:02:39;;;;;;;43.38;6.60;;;16.10;43.80;;;;;;5066877;28;20087;-61
2023/02/08 03:05:05;;;;;;;;;;;16.00;43.10;;;;;;5068271;28;20076;-62
2023/02/08 03:07:57;;;;;;;60.28;8.43;;;16.00;43.10;;;;;;5083579;28;19998;-62
2023/02/08 03:10:29;;;;;;;44.58;8.88;;;16.00;43.30;;;;;;5068815;28;20082;-63
2023/02/08 03:13:14;;;;;;;52.85;9.38;;;15.90;43.00;;;;;;5065651;28;20068;-61
2023/02/08 03:16:18;;;;;;;52.17;8.68;;;15.90;43.30;;;;;;5070512;28;20083;-61
2023/02/08 03:19:15;;;;;;;44.08;8.35;;;15.80;43.40;;;;;;5069267;28;20068;-59
2023/02/08 03:21:50;;;;;;;46.75;9.15;;;15.70;43.80;;;;;;5071350;28;20443;-60
2023/02/08 03:24:40;;;;;;;57.05;8.77;;;15.70;43.70;;;;;;5070927;28;20166;-63
2023/02/08 03:27:09;;;;;;;44.78;8.73;;;15.60;43.10;;;;;;5071762;28;20169;-61
2023/02/08 03:29:51;;;;;;;53.88;9.00;;;15.60;44.20;;;;;;5071395;28;20068;-62
2023/02/08 03:32:19;;;;;;;59.80;10.45;;;15.50;43.90;;;;;;5071289;28;20087;-61
2023/02/08 03:34:53;;;;;;;49.33;9.90;;;15.50;44.00;;;;;;5071989;28;20070;-61
2023/02/08 03:37:29;;;;;;;52.60;9.60;;;15.50;43.20;;;;;;5071022;28;20105;-60
2023/02/08 03:40:05;;;;;;;49.17;10.20;;;15.50;43.50;;;;;;5070755;28;20068;-62
2023/02/08 03:42:32;;;;;;;66.55;11.60;;;15.40;43.70;;;;;;5069517;28;20060;-62
2023/02/08 03:45:11;;;;;;;46.88;11.48;;;15.40;44.20;;;;;;5070708;28;20578;-62
2023/02/08 03:47:41;;;;;;;45.50;11.38;;;15.30;44.10;;;;;;5071265;28;20106;-61
2023/02/08 03:50:10;;;;;;;53.55;12.35;;;15.30;44.70;;;;;;5070738;28;20122;-60
2023/02/08 03:52:38;;;;;;;53.75;13.05;;;15.30;44.50;;;;;;5070611;28;20598;-61
2023/02/08 03:55:15;;;;;;;65.80;11.82;;;15.20;44.40;;;;;;5071253;28;20104;-60
2023/02/08 03:57:45;;;;;;;;;;;15.20;45.00;;;;;;5071608;28;20085;-62
2023/02/08 04:00:15;;;;;;;54.13;12.07;;;15.10;45.20;;;;;;5071702;28;19957;-61
2023/02/08 04:03:21;;;;;;;50.13;11.80;;;15.10;45.10;;;;;;5070369;28;20447;-63
2023/02/08 04:05:49;;;;;;;41.63;11.80;;;15.00;45.20;;;;;;5069858;28;20141;-61
2023/02/08 04:08:15;;;;;;;58.28;12.23;;;14.90;45.20;;;;;;5070739;28;20151;-58
2023/02/08 04:10:41;;;;;;;;;;;14.90;45.70;;;;;;5069953;28;20080;-61
2023/02/08 04:13:08;;;;;;;58.35;12.57;;;14.90;45.90;;;;;;5070917;28;19961;-60
2023/02/08 04:15:34;;;;;;;75.28;15.50;;;14.80;46.40;;;;;;5069645;28;20459;-59
2023/02/08 04:18:00;;;;;;;;;;;14.80;46.20;;;;;;5071231;28;20089;-62
2023/02/08 04:20:26;;;;;;;58.42;16.85;;;14.80;45.60;;;;;;5069539;28;19964;-60
2023/02/08 04:22:52;;;;;;;;;;;14.70;45.80;;;;;;5070693;28;20077;-60
2023/02/08 04:25:19;;;;;;;51.38;13.15;;;14.70;46.40;;;;;;5070523;28;20029;-61
2023/02/08 04:27:45;;;;;;;;;;;14.60;46.00;;;;;;5070174;28;20104;-58
2023/02/08 04:30:12;;;;;;;58.75;12.77;;;14.60;46.40;;;;;;5070447;28;20029;-60
2023/02/08 04:32:38;;;;;;;52.38;14.43;;;14.50;47.00;;;;;;5068853;28;20535;-60
2023/02/08 04:35:05;;;;;;;;;;;14.40;47.40;;;;;;5070023;28;20080;-61
2023/02/08 04:37:32;;;;;;;53.03;13.52;;;14.40;47.20;;;;;;5070335;28;19972;-59
2023/02/08 04:39:58;;;;;;;58.63;12.90;;;14.30;47.10;;;;;;5070253;28;20073;-63
2023/02/08 04:42:25;;;;;;;;;;;14.20;47.20;;;;;;5070136;28;20077;-60
2023/02/08 04:44:51;;;;;;;64.07;13.23;;;14.20;48.20;;;;;;5068182;28;19984;-62
2023/02/08 04:47:17;;;;;;;;;;;14.10;48.20;;;;;;5069771;28;20076;-62
2023/02/08 04:49:44;;;;;;;55.75;13.00;;;14.10;47.90;;;;;;5069703;28;19961;-63
2023/02/08 04:52:10;;;;;;;;;;;14.10;48.20;;;;;;5068756;28;20084;-54
2023/02/08 04:54:36;;;;;;;51.25;12.73;;;14.10;48.70;;;;;;5068839;28;19962;-58
2023/02/08 04:57:03;;;;;;;63.10;13.10;;;14.10;49.40;;;;;;5068989;28;20064;-57
2023/02/08 04:59:29;;;;;;;;;;;14.10;49.70;;;;;;5069748;28;20126;-59
2023/02/08 05:01:55;;;;;;;63.28;14.50;;;14.10;49.60;;;;;;5068406;28;19960;-58
2023/02/08 05:04:21;;;;;;;;;;;14.10;49.90;;;;;;5069882;28;20088;-49
2023/02/08 05:06:48;;;;;;;68.00;15.10;;;14.10;50.10;;;;;;5068330;28;19975;-61
2023/02/08 05:09:14;;;;;;;;;;;14.00;50.20;;;;;;5068337;28;20072;-62
2023/02/08 05:11:41;;;;;;;55.13;14.25;;;14.00;50.40;;;;;;5068926;28;19956;-57
2023/02/08 05:14:07;;;;;;;65.88;13.20;;;14.00;50.50;;;;;;5067861;28;20068;-54
2023/02/08 05:16:33;;;;;;;;;;;14.00;50.40;;;;;;5068331;28;20095;-57
2023/02/08 05:19:00;;;;;;;81.53;20.58;;;13.80;48.90;;;;;;5067794;28;19955;-59
2023/02/08 05:21:26;;;;;;;;;;;13.80;49.70;;;;;;5068611;28;21135;-54
2023/02/08 05:23:53;;;;;;;63.35;13.85;;;13.80;48.90;;;;;;5068100;28;19955;-56
2023/02/08 05:26:20;;;;;;;78.03;15.20;;;13.80;49.80;;;;;;5069786;28;20139;-57
2023/02/08 05:28:46;;;;;;;73.03;16.33;;;13.80;49.40;;;;;;5067572;28;20068;-55
2023/02/08 05:31:19;;;;;;;67.03;16.25;;;13.70;49.50;;;;;;5067821;28;20079;-59
2023/02/08 05:33:47;;;;;;;76.18;15.70;;;13.80;50.20;;;;;;5069314;28;20078;-59
2023/02/08 05:36:13;;;;;;;74.72;17.75;;;13.70;50.60;;;;;;5067320;28;20068;-58
2023/02/08 05:38:39;;;;;;;;;;;13.70;50.50;;;;;;5068741;28;20472;-59
2023/02/08 05:41:06;;;;;;;74.93;16.83;;;13.70;50.50;;;;;;5068752;28;19962;-58
2023/02/08 05:43:32;;;;;;;;;;;13.60;50.80;;;;;;5068746;28;20492;-59
2023/02/08 05:45:58;;;;;;;81.13;19.45;;;13.60;50.80;;;;;;5068020;28;19962;-60
2023/02/08 05:48:24;;;;;;;;;;;13.60;50.30;;;;;;5069893;28;20078;-56
2023/02/08 05:50:50;;;;;;;79.75;19.50;;;13.60;51.10;;;;;;5067621;28;19956;-55
2023/02/08 05:53:16;;;;;;;;;;;13.50;51.60;;;;;;5068484;28;20068;-59
2023/02/08 05:55:49;;;;;;;82.80;21.35;;;13.50;51.90;;;;;;5067652;28;20372;-57
2023/02/08 05:58:16;;;;;;;84.65;23.20;;;13.50;51.80;;;;;;5068104;28;20535;-58
2023/02/08 06:00:43;;;;;;;85.68;21.85;;;13.40;52.30;;;;;;5068516;28;20527;-57
2023/02/08 06:03:10;;;;;;;100.95;23.55;;;13.40;52.90;;;;;;5068697;28;20091;-59
2023/02/08 06:05:39;;;;;;;92.00;24.65;;;13.30;52.50;;;;;;5067314;28;20084;-59
2023/02/08 06:08:06;;;;;;;85.32;26.85;;;13.30;52.20;;;;;;5069084;28;20094;-59
2023/02/08 06:10:34;;;;;;;91.20;27.63;;;13.30;51.70;;;;;;5068613;28;20078;-55
2023/02/08 06:13:00;;;;;;;90.68;29.80;;;13.30;52.00;;;;;;5067298;28;20099;-56
2023/02/08 06:15:27;;;;;;;95.93;32.45;;;13.20;52.50;;;;;;5068257;28;20079;-53
2023/02/08 06:17:53;;;;;;;96.30;29.30;;;13.20;53.50;;;;;;5068573;28;20110;-57
2023/02/08 06:20:19;;;;;;;;;;;13.20;53.40;;;;;;5068822;28;20068;-59
2023/02/08 06:22:46;;;;;;;71.78;23.60;;;13.20;52.30;;;;;;5067655;28;19959;-55
2023/02/08 06:25:12;;;;;;;67.82;22.10;;;13.10;51.90;;;;;;5068686;28;20170;-53
2023/02/08 06:27:38;;;;;;;;;;;13.10;51.90;;;;;;5069307;28;20120;-60
2023/02/08 06:30:05;;;;;;;79.32;23.45;;;13.00;52.00;;;;;;5067588;28;20003;-57
2023/02/08 06:32:32;;;;;;;87.70;28.73;;;13.00;52.40;;;;;;5068228;28;20064;-55
2023/02/08 06:34:58;;;;;;;74.22;27.33;;;13.00;52.40;;;;;;5068328;28;20516;-56
2023/02/08 06:37:25;;;;;;;75.30;25.70;;;13.00;52.60;;;;;;5069085;28;20079;-59
2023/02/08 06:39:51;;;;;;;;;;;12.90;52.30;;;;;;5068556;28;20080;-55
2023/02/08 06:42:17;;;;;;;69.03;23.83;;;12.90;52.90;;;;;;5067899;28;19964;-58
2023/02/08 06:44:43;;;;;;;;;;;12.90;52.60;;;;;;5068451;28;20073;-58
2023/02/08 06:47:09;;;;;;;74.60;24.92;;;12.90;52.60;;;;;;5067962;28;19981;-57
2023/02/08 06:49:35;;;;;;;;;;;12.90;52.50;;;;;;5071929;28;20115;-59
2023/02/08 06:52:02;;;;;;;54.45;21.67;;;12.90;53.20;;;;;;5072272;28;20018;-57
2023/02/08 06:54:28;;;;;;;;;;;12.80;53.00;;;;;;5071543;28;20072;-51
2023/02/08 06:56:54;;;;;;;71.25;23.50;;;12.70;52.50;;;;;;5072211;28;20003;-57
2023/02/08 06:59:20;;;;;;;;;;;12.70;52.20;;;;;;5073039;28;20100;-56
2023/02/08 07:01:47;;;;;;;67.43;22.02;;;12.70;52.30;;;;;;5071997;28;20693;-59
2023/02/08 07:04:13;;;;;;;;;;;12.70;53.50;;;;;;5073532;28;20176;-56
2023/02/08 07:06:39;;;;;;;53.88;22.40;;;12.60;53.70;;;;;;5071378;28;20079;-58
2023/02/08 07:09:06;;;;;;;60.05;21.02;;;12.60;53.00;;;;;;5071186;28;20505;-57
2023/02/08 07:11:32;;;;;;;;;;;12.60;52.90;;;;;;5071297;28;20151;-57
2023/02/08 07:13:58;;;;;;;67.63;22.40;;;12.60;53.10;;;;;;5069985;28;21298;-57
2023/02/08 07:16:24;;;;;;;;;;;12.60;52.60;;;;;;5070197;28;20076;-57
2023/02/08 07:18:51;;;;;;;80.05;25.95;;;12.60;51.90;;;;;;5070375;28;19957;-57
2023/02/08 07:21:17;;;;;;;67.43;23.60;;;12.50;51.40;;;;;;5070491;28;20203;-55
2023/02/08 07:23:43;;;;;;;;;;;12.50;51.20;;;;;;5070856;28;20072;-58
2023/02/08 07:26:13;;;;;;;68.03;21.52;;;12.50;50.80;;;;;;5071782;28;19994;-54
2023/02/08 07:28:40;;;;;;;66.25;20.40;;;12.60;51.10;;;;;;5069297;28;20068;-60
2023/02/08 07:31:08;;;;;;;58.50;18.60;;;12.60;51.20;;;;;;5070242;28;20068;-62
2023/02/08 07:33:36;;;;;;;54.90;18.20;;;12.60;50.40;;;;;;5071153;28;20072;-54
2023/02/08 07:36:04;;;;;;;48.22;15.60;;;12.60;49.70;;;;;;5068531;28;20624;-55
2023/02/08 07:38:32;;;;;;;60.72;16.73;;;12.70;49.90;;;;;;5069644;28;20462;-56
2023/02/08 07:41:17;;;;;;;54.80;15.55;;;12.70;49.90;;;;;;5069759;28;20076;-58
2023/02/08 07:43:43;;;;;;;67.10;19.20;;;12.70;49.00;;;;;;5069181;28;20068;-57
2023/02/08 07:46:13;;;;;;;;;;;12.70;49.20;;;;;;5070650;28;20158;-58
2023/02/08 07:48:39;;;;;;;45.15;16.30;;;12.60;49.90;;;;;;5068477;28;19963;-63
2023/02/08 07:51:06;;;;;;;49.80;16.08;;;12.70;50.10;;;;;;5069252;28;20071;-54
2023/02/08 07:53:33;;;;;;;38.22;14.48;;;12.60;50.10;;;;;;5070593;28;20091;-56
2023/02/08 07:55:59;;;;;;;44.75;13.27;;;12.60;50.50;;;;;;5070620;28;20064;-56
2023/02/08 07:58:26;;;;;;;;;;;12.60;50.50;;;;;;5069530;28;21028;-58
2023/02/08 08:00:52;;;;;;;28.08;9.60;;;12.60;49.90;;;;;;5069970;28;19956;-56
2023/02/08 08:03:19;;;;;;;30.95;8.15;;;12.50;49.70;;;;;;5069590;28;20096;-54
2023/02/08 08:05:46;;;;;;;21.08;7.53;;;12.50;48.60;;;;;;5068262;28;20157;-57
2023/02/08 08:08:12;;;;;;;17.48;5.72;;;12.50;49.10;;;;;;5069472;28;20166;-52
2023/02/08 08:10:39;;;;;;;23.08;6.30;;;12.60;49.60;;;;;;5067891;28;20090;-61
2023/02/08 08:13:05;;;;;;;12.80;4.82;;;12.60;50.30;;;;;;5068869;28;20078;-55
2023/02/08 08:15:32;;;;;;;;;;;12.50;49.20;;;;;;5070963;28;20064;-57
2023/02/08 08:17:58;;;;;;;12.90;4.20;;;12.60;48.70;;;;;;5068905;28;19955;-58
2023/02/08 08:20:24;;;;;;;;;;;12.60;48.80;;;;;;5069845;28;20075;-56
2023/02/08 08:22:50;;;;;;;14.80;6.95;;;12.60;48.30;;;;;;5069220;28;20501;-57
2023/02/08 08:25:17;;;;;;;13.98;7.45;;;12.60;48.00;;;;;;5070235;28;20076;-56
2023/02/08 08:27:44;;;;;;;13.88;7.05;;;12.60;48.60;;;;;;5069608;28;20585;-57
2023/02/08 08:30:14;;;;;;;14.18;6.85;;;12.60;48.80;;;;;;5068870;28;20520;-57
2023/02/08 08:32:41;;;;;;;14.30;6.97;;;12.60;50.10;;;;;;5068208;28;20652;-55
2023/02/08 08:35:07;;;;;;;;;;;12.60;49.90;;;;;;5069186;28;20064;-57
2023/02/08 08:37:34;;;;;;;12.37;7.57;;;12.50;50.10;;;;;;5069320;28;19964;-58
2023/02/08 08:40:01;;;;;;;16.20;7.93;;;12.40;49.80;;;;;;5068346;28;20166;-56
2023/02/08 08:42:27;;;;;;;16.00;7.47;;;12.40;49.70;;;;;;5069309;28;20083;-55
2023/02/08 08:44:53;;;;;;;16.90;7.63;;;12.40;50.00;;;;;;5069393;28;20114;-58
2023/02/08 08:47:20;;;;;;;;;;;12.30;50.20;;;;;;5069045;28;20082;-56
2023/02/08 08:49:46;;;;;;;13.68;7.28;;;12.30;51.20;;;;;;5068788;28;19980;-60
2023/02/08 08:52:12;;;;;;;;;;;12.30;51.10;;;;;;5069284;28;20068;-57
2023/02/08 08:54:39;;;;;;;12.90;6.65;;;12.30;51.30;;;;;;5067487;28;20031;-55
2023/02/08 08:57:05;;;;;;;;;;;12.10;50.30;;;;;;5069810;28;20095;-55
2023/02/08 08:59:32;;;;;;;11.68;6.65;;;12.10;49.70;;;;;;5069602;28;20412;-59
2023/02/08 09:01:59;;;;;;;13.93;6.25;;;12.10;49.70;;;;;;5067063;28;20155;-58
2023/02/08 09:04:25;;;;;;;8.90;5.53;;;12.10;51.10;;;;;;5069477;28;20091;-58
2023/02/08 09:06:53;;;;;;;19.35;7.85;;;12.00;52.20;;;;;;5068256;28;20076;-61
2023/02/08 09:09:20;;;;;;;12.65;7.00;;;12.00;51.90;;;;;;5068004;28;20125;-62
2023/02/08 09:11:48;;;;;;;15.52;6.30;;;12.20;50.60;;;;;;5066699;28;20106;-61
2023/02/08 09:14:14;;;;;;;11.23;5.95;;;12.30;51.20;;;;;;5067805;28;20072;-62
2023/02/08 09:16:41;;;;;;;12.73;5.82;;;12.30;51.70;;;;;;5069241;28;20451;-61
2023/02/08 09:19:09;;;;;;;13.00;5.80;;;12.40;51.90;;;;;;5066997;28;20118;-62
2023/02/08 09:21:36;;;;;;;11.55;6.22;;;12.50;51.50;;;;;;5067824;28;20547;-60
2023/02/08 09:24:03;;;;;;;;;;;12.50;51.20;;;;;;5068542;28;20079;-61
2023/02/08 09:26:29;;;;;;;13.25;5.60;;;12.50;51.20;;;;;;5067791;28;19984;-60
2023/02/08 09:28:56;;;;;;;14.85;5.72;;;12.40;51.90;;;;;;5068524;28;20076;-63
2023/02/08 09:31:23;;;;;;;;;;;12.60;51.60;;;;;;5068484;28;20076;-62
2023/02/08 09:33:51;;;;;;;15.10;5.72;;;12.60;51.10;;;;;;5068528;28;19964;-63
2023/02/08 09:36:19;;;;;;;17.90;5.95;;;12.50;50.60;;;;;;5067757;28;20706;-62
2023/02/08 09:38:48;;;;;;;16.17;6.57;;;12.50;51.00;;;;;;5066218;28;20112;-61
2023/02/08 09:41:20;;;;;;;19.10;6.55;;;12.40;51.20;;;;;;5067792;28;20084;-61
2023/02/08 09:43:56;;;;;;;15.60;6.63;;;12.00;51.90;;;;;;5067287;28;20075;-61
2023/02/08 09:46:26;;;;;;;16.50;6.93;;;12.30;52.30;;;;;;5066551;28;20106;-61
2023/02/08 09:48:59;;;;;;;15.13;6.82;;;12.40;53.20;;;;;;5067481;28;20440;-62
2023/02/08 09:51:46;;;;;;;17.42;7.07;;;12.30;52.10;;;;;;5065699;28;20126;-61
2023/02/08 09:54:18;;;;;;;;;;;12.30;53.90;;;;;;5066702;28;20196;-61
2023/02/08 09:56:48;;;;;;;16.23;6.88;;;12.40;52.60;;;;;;5067432;28;19961;-61
2023/02/08 09:59:34;;;;;;;20.35;6.25;;;12.30;52.90;;;;;;5067512;28;20248;-60
2023/02/08 10:02:16;;;;;;;12.05;4.72;;;12.30;52.60;;;;;;5066283;28;20427;-60
2023/02/08 10:05:03;;;;;;;9.70;3.55;;;12.20;52.50;;;;;;5066879;28;20107;-62
2023/02/08 10:07:31;;;;;;;8.57;2.63;;;12.10;53.40;;;;;;5067568;28;20089;-61
2023/02/08 10:10:01;;;;;;;3.83;2.10;;;12.00;52.60;;;;;;5067916;28;20147;-60
2023/02/08 10:13:00;;;;;;;3.15;1.52;;;12.00;52.20;;;;;;5065906;28;20081;-61
2023/02/08 10:16:00;;;;;;;2.78;1.60;;;11.90;52.70;;;;;;5066508;28;20789;-61
2023/02/08 10:18:57;;;;;;;12.18;1.88;;;12.00;52.50;;;;;;5066582;28;20462;-60
2023/02/08 10:21:44;;;;;;;6.17;1.33;;;12.00;52.30;;;;;;5067378;28;20069;-62
2023/02/08 10:24:29;;;;;;;3.90;1.38;;;12.00;52.30;;;;;;5067964;28;20079;-61
2023/02/08 10:27:20;;;;;;;8.23;1.40;;;11.80;52.20;;;;;;5066961;28;20467;-61
2023/02/08 10:30:05;;;;;;;5.80;1.40;;;11.70;53.10;;;;;;5066568;28;20111;-61
2023/02/08 10:32:54;;;;;;;1.73;1.02;;;11.70;53.90;;;;;;5066058;28;20065;-62
2023/02/08 10:35:35;;;;;;;2.45;1.15;;;11.60;54.00;;;;;;5066330;28;20152;-62
2023/02/08 10:38:24;;;;;;;6.95;1.20;;;12.00;64.00;;;;;;5066678;28;20097;-61
2023/02/08 10:41:03;;;;;;;2.08;0.90;;;11.40;69.40;;;;;;5054826;28;20144;-60
2023/02/08 10:43:35;;;;;;;7.13;1.20;;;11.40;53.20;;;;;;5065370;28;20503;-61
2023/02/08 10:46:14;;;;;;;4.25;1.17;;;11.50;53.70;;;;;;5067097;28;20125;-61
2023/02/08 10:49:17;;;;;;;2.33;1.20;;;11.40;53.30;;;;;;5066444;28;20178;-62
2023/02/08 10:51:45;;;;;;;4.18;1.02;;;11.50;53.10;;;;;;5065547;28;20092;-62
2023/02/08 10:54:16;;;;;;;4.13;1.20;;;11.40;53.00;;;;;;5066025;28;20099;-61
2023/02/08 10:56:43;;;;;;;2.45;1.27;;;11.30;53.40;;;;;;5067469;28;20077;-62
2023/02/08 10:59:20;;;;;;;;;;;11.30;53.80;;;;;;5068500;28;20514;-62
2023/02/08 11:01:48;;;;;;;5.63;1.52;;;11.20;54.10;;;;;;5066141;28;20039;-58
2023/02/08 11:04:16;;;;;;;5.90;2.25;;;11.20;55.00;;;;;;5067640;28;20099;-61
2023/02/08 11:06:44;;;;;;;3.78;1.10;;;11.20;54.60;;;;;;5065607;28;20119;-61
2023/02/08 11:09:30;;;;;;;5.68;1.05;;;11.10;53.90;;;;;;5066500;28;20539;-62
2023/02/08 11:12:01;;;;;;;3.45;0.90;;;11.20;53.80;;;;;;5065688;28;20068;-61
2023/02/08 11:14:47;;;;;;;6.75;1.20;;;11.50;79.30;;;;;;5066463;28;20156;-65
2023/02/08 11:17:25;;;;;;;2.03;0.75;;;11.30;74.60;;;;;;5066200;28;20426;-61
2023/02/08 11:19:52;;;;;;;6.28;1.58;;;11.00;53.70;;;;;;5065421;28;20065;-62
2023/02/08 11:22:22;;;;;;;2.05;0.82;;;10.90;54.10;;;;;;5066607;28;20088;-59
2023/02/08 11:24:58;;;;;;;5.22;1.10;;;10.90;54.30;;;;;;5066529;28;20077;-62
2023/02/08 11:27:28;;;;;;;3.10;0.77;;;10.90;54.10;;;;;;5066262;28;20369;-59
2023/02/08 11:30:12;;;;;;;4.03;0.95;;;10.80;55.10;;;;;;5067439;28;20085;-61
2023/02/08 11:32:40;;;;;;;9.05;1.30;;;10.90;55.20;;;;;;5066078;28;20071;-61
2023/02/08 11:35:22;;;;;;;1.48;0.88;;;10.80;54.70;;;;;;5068977;28;20103;-62
2023/02/08 11:37:58;;;;;;;4.72;1.10;;;10.80;54.50;;;;;;5070421;28;20068;-60
2023/02/08 11:40:41;;;;;;;2.25;1.05;;;10.70;54.40;;;;;;5068882;28;20077;-59
2023/02/08 11:43:24;;;;;;;3.80;1.02;;;10.80;54.70;;;;;;5069641;28;20083;-58
2023/02/08 11:45:51;;;;;;;3.17;1.10;;;10.80;55.20;;;;;;5069368;28;20069;-61
2023/02/08 11:48:32;;;;;;;1.70;0.90;;;10.80;55.00;;;;;;5069674;28;20091;-60
2023/02/08 11:51:01;;;;;;;10.15;1.08;;;10.80;55.00;;;;;;5070156;28;20527;-62
2023/02/08 11:53:38;;;;;;;4.28;1.30;;;10.70;54.70;;;;;;5070282;28;20081;-62
2023/02/08 11:56:19;;;;;;;;;;;10.70;54.90;;;;;;5070597;28;20110;-61
2023/02/08 11:58:56;;;;;;;3.78;0.95;;;10.70;54.90;;;;;;5070480;28;20014;-61
2023/02/08 12:01:25;;;;;;;;;;;10.70;54.70;;;;;;5068290;28;20091;-60
2023/02/08 12:03:52;;;;;;;5.88;0.80;;;10.60;54.80;;;;;;5070004;28;19976;-60
2023/02/08 12:06:33;;;;;;;7.53;0.95;;;10.60;54.70;;;;;;5069113;28;20131;-60
2023/02/08 12:09:30;;;;;;;2.50;0.90;;;10.60;62.30;;;;;;5069792;28;20085;-60
2023/02/08 12:12:16;;;;;;;4.43;1.15;;;10.60;55.00;;;;;;5068927;28;20115;-59
2023/02/08 12:15:10;;;;;;;1.27;0.80;;;10.40;54.80;;;;;;5068727;28;20099;-62
2023/02/08 12:18:02;;;;;;;2.88;0.82;;;10.90;74.20;;;;;;5068316;28;20156;-62
2023/02/08 12:20:45;;;;;;;4.70;0.80;;;10.40;55.50;;;;;;5069024;28;20551;-60
2023/02/08 12:23:54;;;;;;;2.28;0.70;;;10.90;73.70;;;;;;5069098;28;20083;-59
2023/02/08 12:26:39;;;;;;;3.58;0.80;;;10.20;77.10;;;;;;5027335;28;20101;-61
2023/02/08 12:29:14;;;;;;;2.05;0.80;;;10.50;84.10;;;;;;5027168;28;20100;-61
2023/02/08 12:32:27;;;;;;;1.83;0.73;;;10.40;53.70;;;;;;5026905;28;20110;-62
2023/02/08 12:35:29;;;;;;;3.60;0.93;;;10.10;65.90;;;;;;5026826;28;20128;-58
2023/02/08 12:41:12;;;;;;;2.10;0.70;;;10.80;73.90;;;;;;5025703;28;20086;-61
2023/02/08 12:44:04;;;;;;;1.40;0.70;;;10.40;57.50;;;;;;5025691;28;20431;-60
2023/02/08 12:46:48;;;;;;;2.78;0.70;;;10.60;54.30;;;;;;5025057;28;20180;-61
2023/02/08 12:49:26;;;;;;;1.77;0.70;;;10.70;53.10;;;;;;5026040;28;20081;-62
2023/02/08 12:51:56;;;;;;;2.17;0.90;;;10.70;53.80;;;;;;5024904;28;20087;-64
2023/02/08 12:54:50;;;;;;;8.50;0.90;;;10.60;54.50;;;;;;5024479;28;20087;-61
2023/02/08 12:57:19;;;;;;;4.95;0.70;;;10.60;53.90;;;;;;5027734;28;20142;-61
2023/02/08 12:59:53;;;;;;;2.80;0.75;;;10.60;54.30;;;;;;5039259;28;20183;-62
2023/02/08 13:02:56;;;;;;;1.10;0.60;;;10.80;62.20;;;;;;5068580;28;20532;-61
2023/02/08 13:05:27;;;;;;;2.95;0.88;;;10.50;53.90;;;;;;5068289;28;20073;-58
2023/02/08 13:08:06;;;;;;;3.55;0.60;;;10.70;82.80;;;;;;5067996;28;20095;-61
2023/02/08 13:10:37;;;;;;;4.30;0.70;;;10.50;53.30;;;;;;5068817;28;20472;-61
2023/02/08 13:13:19;;;;;;;2.25;0.73;;;10.40;55.60;;;;;;5066995;28;20079;-61
2023/02/08 13:15:49;;;;;;;1.98;0.73;;;10.80;70.40;;;;;;5067541;28;20091;-61
2023/02/08 13:18:23;;;;;;;1.15;0.50;;;10.50;70.40;;;;;;5068437;28;20321;-56